createdAt,value
2023-03-30T00:00:43.174Z,100959.69
2023-03-30T00:03:10.252Z,100931.91
2023-03-30T00:05:37.119Z,100938.50
2023-03-30T00:08:04.314Z,100941.13
2023-03-30T00:10:30.904Z,100938.28
2023-03-30T00:12:57.530Z,100923.09
2023-03-30T00:15:24.431Z,100926.34
2023-03-30T00:17:51.347Z,100851.66
2023-03-30T00:20:17.952Z,100883.91
2023-03-30T00:22:46.101Z,100884.38
2023-03-30T00:25:15.370Z,100880.50
2023-03-30T00:27:42.109Z,100905.63
2023-03-30T00:30:13.118Z,100896.13
2023-03-30T00:32:40.471Z,100886.88
2023-03-30T00:35:07.743Z,100882.66
2023-03-30T00:37:34.488Z,100877.28
2023-03-30T00:40:01.038Z,100899.59
2023-03-30T00:42:27.807Z,100902.41
2023-03-30T00:45:21.446Z,100912.03
2023-03-30T00:47:56.839Z,100912.38
2023-03-30T00:50:27.499Z,100919.78
2023-03-30T00:52:56.596Z,100894.31
2023-03-30T00:55:25.720Z,100853.28
2023-03-30T00:57:54.343Z,100848.38
2023-03-30T01:00:21.141Z,100905.97
2023-03-30T01:02:53.253Z,100906.75
2023-03-30T01:05:20.042Z,100893.19
2023-03-30T01:07:47.001Z,100905.13
2023-03-30T01:10:13.572Z,100874.97
2023-03-30T01:12:40.867Z,100877.16
2023-03-30T01:15:08.400Z,100865.97
2023-03-30T01:18:07.092Z,100859.22
2023-03-30T01:21:06.329Z,100860.34
2023-03-30T01:24:03.866Z,100859.91
2023-03-30T01:26:42.332Z,100856.72
2023-03-30T01:29:39.972Z,100856.22
2023-03-30T01:32:09.215Z,100854.28
2023-03-30T01:34:35.633Z,100850.25
2023-03-30T01:37:27.019Z,100810.41
2023-03-30T01:40:15.899Z,100840.53
2023-03-30T01:43:07.184Z,100817.16
2023-03-30T01:45:47.599Z,100809.22
2023-03-30T01:48:17.288Z,100783.13
2023-03-30T01:50:52.429Z,100777.66
2023-03-30T01:53:40.666Z,100772.41
2023-03-30T01:56:11.066Z,100803.44
2023-03-30T01:58:48.963Z,100823.06
2023-03-30T02:01:17.440Z,100813.38
2023-03-30T02:03:50.125Z,100823.66
2023-03-30T02:06:29.142Z,100818.63
2023-03-30T02:08:59.181Z,100813.72
2023-03-30T02:11:27.078Z,100811.31
2023-03-30T02:13:55.528Z,100794.63
2023-03-30T02:16:34.239Z,100790.53
2023-03-30T02:19:01.498Z,100794.31
2023-03-30T02:21:28.315Z,100773.31
2023-03-30T02:23:56.090Z,100782.34
2023-03-30T02:26:23.150Z,100796.63
2023-03-30T02:28:51.285Z,100813.59
2023-03-30T02:31:17.996Z,100784.28
2023-03-30T02:34:19.370Z,100815.06
2023-03-30T02:36:45.843Z,100816.22
2023-03-30T02:39:29.488Z,100794.97
2023-03-30T02:42:16.101Z,100748.22
2023-03-30T02:45:18.993Z,100644.22
2023-03-30T02:47:57.601Z,100505.81
2023-03-30T02:50:36.594Z,100497.88
2023-03-30T02:53:15.795Z,100516.69
2023-03-30T02:56:10.074Z,100517.31
2023-03-30T02:58:44.485Z,100515.25
2023-03-30T03:01:19.391Z,100496.03
2023-03-30T03:03:49.243Z,100465.56
2023-03-30T03:06:16.460Z,100435.13
2023-03-30T03:08:45.251Z,100430.28
2023-03-30T03:11:11.987Z,100408.84
2023-03-30T03:13:39.405Z,100396.78
2023-03-30T03:16:08.443Z,100398.81
2023-03-30T03:18:35.087Z,100383.66
2023-03-30T03:21:01.958Z,100356.56
2023-03-30T03:23:28.797Z,100367.00
2023-03-30T03:25:55.322Z,100365.75
2023-03-30T03:28:21.909Z,100359.94
2023-03-30T03:30:51.370Z,100361.97
2023-03-30T03:33:19.146Z,100363.25
2023-03-30T03:35:45.917Z,100346.88
2023-03-30T03:38:13.335Z,100344.00
2023-03-30T03:40:40.526Z,100332.09
2023-03-30T03:43:07.164Z,100350.84
2023-03-30T03:45:34.036Z,100340.50
2023-03-30T03:48:00.745Z,100323.78
2023-03-30T03:50:27.248Z,100297.16
2023-03-30T03:52:53.824Z,100250.59
2023-03-30T03:55:20.432Z,100250.59
2023-03-30T03:57:47.296Z,100222.41
2023-03-30T04:00:13.972Z,100166.41
2023-03-30T04:02:40.576Z,100199.72
2023-03-30T04:05:07.455Z,100174.56
2023-03-30T04:07:34.663Z,100157.75
2023-03-30T04:10:01.489Z,100144.78
2023-03-30T04:12:31.287Z,100117.59
2023-03-30T04:14:57.849Z,100113.06
2023-03-30T04:17:24.454Z,100072.69
2023-03-30T04:19:51.949Z,100047.59
2023-03-30T04:22:18.487Z,100006.06
2023-03-30T04:24:45.051Z,99985.41
2023-03-30T04:27:11.995Z,99986.56
2023-03-30T04:29:38.453Z,99984.28
2023-03-30T04:32:06.830Z,99970.09
2023-03-30T04:34:33.365Z,99948.13
2023-03-30T04:36:59.963Z,99934.81
2023-03-30T04:39:26.434Z,99909.25
2023-03-30T04:41:53.021Z,99844.59
2023-03-30T04:44:20.789Z,99845.72
2023-03-30T04:46:47.498Z,99822.03
2023-03-30T04:49:14.042Z,99804.13
2023-03-30T04:51:40.560Z,99763.78
2023-03-30T04:54:07.127Z,99778.22
2023-03-30T04:56:33.616Z,99783.44
2023-03-30T04:59:00.215Z,99772.13
2023-03-30T05:01:26.869Z,99774.41
2023-03-30T05:03:53.687Z,99776.47
2023-03-30T05:06:20.198Z,99730.41
2023-03-30T05:08:46.717Z,99758.63
2023-03-30T05:11:13.265Z,99772.91
2023-03-30T05:13:39.767Z,99774.41
2023-03-30T05:16:07.182Z,99768.47
2023-03-30T05:18:34.018Z,99764.75
2023-03-30T05:21:00.735Z,99792.94
2023-03-30T05:23:27.361Z,99804.19
2023-03-30T05:25:54.207Z,99797.16
2023-03-30T05:28:22.005Z,99773.44
2023-03-30T05:30:54.027Z,99809.91
2023-03-30T05:33:21.426Z,99828.28
2023-03-30T05:35:48.151Z,99815.84
2023-03-30T05:38:14.780Z,99833.19
2023-03-30T05:40:41.326Z,99836.94
2023-03-30T05:43:09.263Z,99840.78
2023-03-30T05:45:36.340Z,99848.41
2023-03-30T05:48:03.116Z,99853.69
2023-03-30T05:50:29.671Z,99846.88
2023-03-30T05:52:56.111Z,99850.94
2023-03-30T05:55:22.640Z,99864.00
2023-03-30T05:57:49.296Z,99860.69
2023-03-30T06:00:16.249Z,99863.53
2023-03-30T06:02:42.841Z,99831.78
2023-03-30T06:05:09.515Z,99865.22
2023-03-30T06:07:36.303Z,99871.16
2023-03-30T06:10:03.202Z,99875.91
2023-03-30T06:12:31.245Z,99894.88
2023-03-30T06:14:58.101Z,99889.78
2023-03-30T06:17:24.828Z,99897.84
2023-03-30T06:19:51.385Z,99900.88
2023-03-30T06:22:18.058Z,99934.13
2023-03-30T06:24:44.537Z,99919.94
2023-03-30T06:27:11.065Z,99951.72
2023-03-30T06:29:37.613Z,99953.56
2023-03-30T06:32:04.539Z,99955.19
2023-03-30T06:34:31.318Z,99985.28
2023-03-30T06:36:58.280Z,100008.09
2023-03-30T06:39:25.168Z,100019.00
2023-03-30T06:41:52.128Z,100030.84
2023-03-30T06:44:18.688Z,100042.75
2023-03-30T06:46:45.314Z,100040.59
2023-03-30T06:49:12.384Z,100057.78
2023-03-30T06:51:39.052Z,100059.50
2023-03-30T06:54:05.954Z,100080.84
2023-03-30T06:56:32.661Z,100089.97
2023-03-30T06:58:59.324Z,100093.72
2023-03-30T07:01:26.047Z,100104.66
2023-03-30T07:03:52.958Z,100111.22
2023-03-30T07:06:21.037Z,100085.66
2023-03-30T07:08:48.022Z,100099.63
2023-03-30T07:11:14.652Z,100149.81
2023-03-30T07:13:41.276Z,100143.00
2023-03-30T07:16:08.124Z,100137.84
2023-03-30T07:18:34.684Z,100145.47
2023-03-30T07:21:01.991Z,100127.25
2023-03-30T07:23:28.697Z,100147.41
2023-03-30T07:25:55.293Z,100147.16
2023-03-30T07:28:21.923Z,100184.59
2023-03-30T07:30:48.892Z,100163.41
2023-03-30T07:33:15.767Z,100182.81
2023-03-30T07:35:46.667Z,100208.94
2023-03-30T07:38:14.223Z,100219.13
2023-03-30T07:40:40.929Z,100232.34
2023-03-30T07:43:08.034Z,100203.72
2023-03-30T07:45:34.887Z,100250.13
2023-03-30T07:48:01.524Z,100248.75
2023-03-30T07:50:28.237Z,100248.91
2023-03-30T07:52:54.814Z,100256.75
2023-03-30T07:55:21.476Z,100272.94
2023-03-30T07:57:48.093Z,100302.09
2023-03-30T08:00:15.162Z,100311.72
2023-03-30T08:02:42.251Z,100313.97
2023-03-30T08:05:09.402Z,100314.88
2023-03-30T08:07:36.184Z,100321.81
2023-03-30T08:10:02.794Z,100326.78
2023-03-30T08:12:29.328Z,100337.59
2023-03-30T08:14:55.937Z,100321.69
2023-03-30T08:17:22.886Z,100354.88
2023-03-30T08:19:49.604Z,100358.91
2023-03-30T08:22:16.150Z,100355.03
2023-03-30T08:24:42.762Z,100338.47
2023-03-30T08:27:09.372Z,100327.50
2023-03-30T08:29:36.123Z,100380.50
2023-03-30T08:32:02.663Z,100354.28
2023-03-30T08:34:34.332Z,100375.34
2023-03-30T08:37:02.665Z,100372.75
2023-03-30T09:35:10.278Z,100572.34
2023-03-30T09:37:38.900Z,100565.41
2023-03-30T09:40:24.856Z,100558.06
2023-03-30T09:43:34.722Z,100538.75
2023-03-30T09:46:06.476Z,100552.59
2023-03-30T09:48:45.180Z,100555.97
2023-03-30T09:51:29.195Z,100567.53
2023-03-30T09:54:03.356Z,100580.50
2023-03-30T09:56:42.579Z,100609.88
2023-03-30T09:59:27.990Z,100593.47
2023-03-30T10:02:19.688Z,100626.25
2023-03-30T10:04:52.314Z,100617.09
2023-03-30T10:07:48.608Z,100607.97
2023-03-30T10:10:21.440Z,100607.75
2023-03-30T10:12:51.441Z,100606.59
2023-03-30T10:15:20.662Z,100619.63
2023-03-30T10:17:48.800Z,100613.03
2023-03-30T10:20:33.176Z,100611.53
2023-03-30T10:23:04.908Z,100642.91
2023-03-30T10:25:33.550Z,100663.50
2023-03-30T10:28:05.021Z,100722.59
2023-03-30T10:30:33.291Z,100776.22
2023-03-30T10:33:02.567Z,100902.63
2023-03-30T10:35:38.048Z,100975.44
2023-03-30T10:38:07.763Z,100955.34
2023-03-30T10:40:37.140Z,101031.75
2023-03-30T10:43:07.863Z,101055.78
2023-03-30T10:45:37.569Z,101087.59
2023-03-30T10:48:13.207Z,101045.25
2023-03-30T10:51:10.158Z,101075.44
2023-03-30T10:53:49.944Z,101076.94
2023-03-30T10:56:44.601Z,101085.25
2023-03-30T10:59:19.976Z,101086.44
2023-03-30T11:02:11.898Z,101086.13
2023-03-30T11:04:59.121Z,101067.31
2023-03-30T11:07:51.297Z,101060.91
2023-03-30T11:10:21.887Z,101059.09
2023-03-30T11:12:55.273Z,101065.50
2023-03-30T11:15:27.912Z,101073.25
2023-03-30T11:18:05.568Z,101077.13
2023-03-30T11:20:36.294Z,101044.88
2023-03-30T11:23:13.553Z,101090.47
2023-03-30T11:25:47.182Z,101086.47
2023-03-30T11:28:13.718Z,101100.13
2023-03-30T11:30:41.381Z,101043.75
2023-03-30T11:33:35.686Z,101075.91
2023-03-30T11:36:15.082Z,101079.47
2023-03-30T11:38:49.186Z,101065.50
2023-03-30T11:41:22.030Z,101032.44
2023-03-30T11:43:49.734Z,101085.50
2023-03-30T11:46:48.702Z,101075.03
2023-03-30T11:49:37.842Z,101051.88
2023-03-30T11:52:33.661Z,101025.47
2023-03-30T11:55:28.097Z,101070.41
2023-03-30T11:58:00.788Z,101060.75
2023-03-30T12:00:55.445Z,101061.47
2023-03-30T12:03:30.218Z,101055.59
2023-03-30T12:06:30.599Z,101054.44
2023-03-30T12:09:15.662Z,101059.34
2023-03-30T12:11:46.929Z,101053.72
2023-03-30T12:14:32.847Z,101033.47
2023-03-30T12:17:10.787Z,101062.97
2023-03-30T12:19:55.627Z,101011.91
2023-03-30T12:22:36.769Z,101044.31
2023-03-30T12:25:14.972Z,101046.59
2023-03-30T12:28:14.546Z,101041.31
2023-03-30T12:31:01.354Z,101041.84
2023-03-30T12:33:46.930Z,101029.56
2023-03-30T12:36:27.272Z,100988.94
2023-03-30T12:38:58.537Z,101012.41
2023-03-30T12:41:27.338Z,101003.88
2023-03-30T12:44:20.198Z,101002.84
2023-03-30T12:46:51.238Z,100996.59
2023-03-30T12:49:49.054Z,101000.41
2023-03-30T12:52:28.545Z,100987.41
2023-03-30T12:55:19.644Z,100996.00
2023-03-30T12:58:01.500Z,100986.81
2023-03-30T13:00:28.141Z,100977.41
2023-03-30T13:03:03.527Z,100973.34
2023-03-30T13:05:35.812Z,100967.28
2023-03-30T13:08:06.144Z,100970.44
2023-03-30T13:10:35.518Z,100981.72
2023-03-30T13:13:03.381Z,100991.31
2023-03-30T13:15:29.847Z,100949.88
2023-03-30T13:17:56.846Z,100958.63
2023-03-30T13:20:33.878Z,100968.16
2023-03-30T13:23:09.726Z,100975.91
2023-03-30T13:25:39.519Z,100944.94
2023-03-30T13:28:33.920Z,100968.31
2023-03-30T13:31:47.223Z,100960.16
2023-03-30T13:34:24.322Z,100955.38
2023-03-30T13:37:07.105Z,100941.22
2023-03-30T13:39:59.775Z,100953.09
2023-03-30T13:42:42.192Z,100929.56
2023-03-30T13:45:38.200Z,100949.88
2023-03-30T13:48:07.936Z,100939.13
2023-03-30T13:50:35.251Z,100941.72
2023-03-30T13:53:09.563Z,100931.00
2023-03-30T13:55:39.934Z,100936.19
2023-03-30T13:58:14.413Z,100909.28
2023-03-30T14:00:56.226Z,100899.69
2023-03-30T14:03:47.791Z,100948.69
2023-03-30T14:06:14.803Z,100940.66
2023-03-30T14:08:44.002Z,100909.44
2023-03-30T14:11:23.924Z,100946.00
2023-03-30T14:13:53.019Z,100940.78
2023-03-30T14:16:26.383Z,100918.63
2023-03-30T14:19:05.310Z,100948.63
2023-03-30T14:21:36.175Z,100949.31
2023-03-30T14:24:04.725Z,100912.41
2023-03-30T14:26:31.367Z,100956.66
2023-03-30T14:29:02.407Z,100934.22
2023-03-30T14:31:38.945Z,100947.13
2023-03-30T14:34:29.358Z,100943.63
2023-03-30T14:37:01.468Z,100914.22
2023-03-30T14:39:30.172Z,100915.13
2023-03-30T14:41:57.124Z,100949.34
2023-03-30T14:44:24.277Z,100921.50
2023-03-30T14:46:56.080Z,100918.75
2023-03-30T14:49:29.738Z,100933.44
2023-03-30T14:52:08.576Z,100930.41
2023-03-30T14:54:37.301Z,100932.59
2023-03-30T14:57:07.150Z,100926.22
2023-03-30T14:59:39.769Z,100944.50
2023-03-30T15:02:19.331Z,100925.00
2023-03-30T15:04:46.299Z,100941.03
2023-03-30T15:07:17.492Z,100935.72
2023-03-30T15:09:47.565Z,100936.50
2023-03-30T15:12:48.738Z,100940.03
2023-03-30T15:15:17.710Z,100907.09
2023-03-30T15:17:49.371Z,100933.94
2023-03-30T15:20:17.241Z,100905.47
2023-03-30T15:22:46.967Z,100929.91
2023-03-30T15:25:18.000Z,100925.91
2023-03-30T15:28:06.974Z,100888.09
2023-03-30T15:30:40.985Z,100915.72
2023-03-30T15:33:20.233Z,100921.25
2023-03-30T15:35:52.851Z,100927.44
2023-03-30T15:38:29.782Z,100888.94
2023-03-30T15:40:56.575Z,100920.31
2023-03-30T15:43:27.546Z,100901.19
2023-03-30T15:46:06.002Z,100915.22
2023-03-30T15:48:45.929Z,100891.81
2023-03-30T15:51:21.035Z,100930.03
2023-03-30T15:53:55.669Z,100920.09
2023-03-30T15:56:38.829Z,100932.38
2023-03-30T15:59:09.932Z,100940.44
2023-03-30T16:01:44.440Z,100928.44
2023-03-30T16:04:15.095Z,100919.81
2023-03-30T16:06:43.122Z,100914.34
2023-03-30T16:09:10.706Z,100914.56
2023-03-30T16:11:37.912Z,100914.59
2023-03-30T16:14:06.953Z,100915.69
2023-03-30T16:16:36.520Z,100915.75
2023-03-30T16:19:03.313Z,100917.16
2023-03-30T16:21:29.761Z,100902.44
2023-03-30T16:23:56.387Z,100902.91
2023-03-30T16:26:22.880Z,100883.91
2023-03-30T16:28:53.932Z,100919.59
2023-03-30T16:31:22.611Z,100912.97
2023-03-30T16:33:49.706Z,100919.56
2023-03-30T16:36:19.007Z,100923.63
2023-03-30T16:38:46.879Z,100913.00
2023-03-30T16:41:19.267Z,100891.34
2023-03-30T16:43:46.107Z,100914.69
2023-03-30T16:46:14.369Z,100881.91
2023-03-30T16:48:43.906Z,100915.50
2023-03-30T16:51:12.709Z,100889.44
2023-03-30T16:53:39.995Z,100916.38
2023-03-30T16:56:06.968Z,100901.72
2023-03-30T16:58:33.521Z,100913.75
2023-03-30T17:01:00.001Z,100878.56
2023-03-30T17:03:27.025Z,100913.19
2023-03-30T17:05:53.718Z,100925.91
2023-03-30T17:08:23.350Z,100885.00
2023-03-30T17:10:51.257Z,100879.34
2023-03-30T17:13:17.862Z,100927.03
2023-03-30T17:15:44.688Z,100917.28
2023-03-30T17:18:23.387Z,100917.47
2023-03-30T17:20:54.948Z,100921.00
2023-03-30T17:23:23.989Z,100918.75
2023-03-30T17:25:51.613Z,100924.78
2023-03-30T17:28:28.328Z,100913.44
2023-03-30T17:30:57.638Z,100915.97
2023-03-30T17:33:25.022Z,100885.59
2023-03-30T17:36:19.219Z,100909.59
2023-03-30T17:38:48.177Z,100915.97
2023-03-30T17:41:16.478Z,100918.19
2023-03-30T17:43:43.402Z,100929.00
2023-03-30T17:46:12.163Z,100921.06
2023-03-30T17:48:39.117Z,100927.69
2023-03-30T17:51:06.195Z,100927.13
2023-03-30T17:53:33.363Z,100932.56
2023-03-30T17:56:00.032Z,100929.09
2023-03-30T17:58:32.835Z,100902.28
2023-03-30T18:01:01.207Z,100921.47
2023-03-30T18:03:28.388Z,100928.97
2023-03-30T18:05:56.615Z,100922.56
2023-03-30T18:08:24.230Z,100925.53
2023-03-30T18:10:56.754Z,100932.72
2023-03-30T18:13:24.672Z,100930.19
2023-03-30T18:15:53.171Z,100923.63
2023-03-30T18:18:21.945Z,100925.94
2023-03-30T18:20:50.462Z,100934.00
2023-03-30T18:23:17.404Z,100929.72
2023-03-30T18:25:44.074Z,100937.59
2023-03-30T18:28:16.237Z,100936.22
2023-03-30T18:30:42.852Z,100937.78
2023-03-30T18:33:09.817Z,100936.63
2023-03-30T18:35:37.280Z,100942.22
2023-03-30T18:38:05.027Z,100931.38
2023-03-30T18:40:37.663Z,100939.44
2023-03-30T18:43:05.618Z,100951.78
2023-03-30T18:45:35.567Z,100944.38
2023-03-30T18:48:02.716Z,100946.47
2023-03-30T18:50:32.127Z,100923.59
2023-03-30T18:52:59.462Z,100924.78
2023-03-30T18:55:25.979Z,100894.69
2023-03-30T18:57:52.513Z,100940.91
2023-03-30T19:00:28.108Z,100935.72
2023-03-30T19:02:55.599Z,100948.19
2023-03-30T19:05:24.401Z,100944.44
2023-03-30T19:07:51.358Z,100943.13
2023-03-30T19:10:20.479Z,100937.31
2023-03-30T19:12:47.539Z,100953.59
2023-03-30T19:15:19.607Z,100902.28
2023-03-30T19:17:46.621Z,100954.06
2023-03-30T19:20:14.477Z,100953.91
2023-03-30T19:22:41.133Z,100941.22
2023-03-30T19:25:09.626Z,100947.88
2023-03-30T19:27:36.961Z,100947.66
2023-03-30T19:30:05.178Z,100938.84
2023-03-30T19:32:32.996Z,100940.69
2023-03-30T19:34:59.612Z,100942.31
2023-03-30T19:37:26.313Z,100945.78
2023-03-30T19:39:52.943Z,100952.66
2023-03-30T19:42:19.557Z,100947.00
2023-03-30T19:44:46.159Z,100910.50
2023-03-30T19:47:12.904Z,100937.81
2023-03-30T19:49:39.655Z,100938.38
2023-03-30T19:52:06.404Z,100942.84
2023-03-30T19:54:33.017Z,100936.81
2023-03-30T19:56:59.811Z,100941.50
2023-03-30T19:59:26.510Z,100947.88
2023-03-30T20:01:53.232Z,100945.25
2023-03-30T20:04:20.321Z,100938.59
2023-03-30T20:06:47.164Z,100913.13
2023-03-30T20:09:13.980Z,100932.59
2023-03-30T20:11:40.506Z,100935.19
2023-03-30T20:14:07.154Z,100922.16
2023-03-30T20:16:33.749Z,100935.44
2023-03-30T20:19:01.498Z,100917.75
2023-03-30T20:21:28.148Z,100917.97
2023-03-30T20:23:54.988Z,100922.50
2023-03-30T20:26:21.671Z,100925.09
2023-03-30T20:28:48.819Z,100910.09
2023-03-30T20:31:16.187Z,100920.19
2023-03-30T20:33:42.950Z,100916.59
2023-03-30T20:36:09.957Z,100912.41
2023-03-30T20:38:36.593Z,100910.75
2023-03-30T20:41:03.204Z,100883.44
2023-03-30T20:43:35.051Z,100915.00
2023-03-30T20:46:07.283Z,100911.56
2023-03-30T20:48:34.422Z,100913.97
2023-03-30T20:51:01.542Z,100917.00
2023-03-30T20:53:29.797Z,100904.53
2023-03-30T20:55:57.449Z,100901.72
2023-03-30T20:58:24.643Z,100891.13
2023-03-30T21:00:55.000Z,100908.59
2023-03-30T21:03:21.637Z,100910.00
2023-03-30T21:05:59.431Z,100901.34
2023-03-30T21:08:26.328Z,100898.13
2023-03-30T21:10:54.191Z,100897.97
2023-03-30T21:13:21.097Z,100900.78
2023-03-30T21:15:47.727Z,100873.09
2023-03-30T21:18:14.344Z,100865.06
2023-03-30T21:20:43.328Z,100890.75
2023-03-30T21:23:10.109Z,100889.75
2023-03-30T21:25:36.684Z,100891.19
2023-03-30T21:28:03.318Z,100897.63
2023-03-30T21:30:30.133Z,100885.78
2023-03-30T21:32:57.043Z,100884.56
2023-03-30T21:35:24.002Z,100879.34
2023-03-30T21:37:50.827Z,100874.91
2023-03-30T21:40:17.446Z,100873.13
2023-03-30T21:42:44.421Z,100882.75
2023-03-30T21:45:11.467Z,100862.69
2023-03-30T21:47:39.048Z,100954.09
2023-03-30T21:50:06.844Z,100949.66
2023-03-30T21:52:33.801Z,100910.28
2023-03-30T21:55:00.657Z,100885.19
2023-03-30T21:57:27.411Z,100779.56
2023-03-30T21:59:54.013Z,100614.31
2023-03-30T22:02:20.653Z,100535.78
2023-03-30T22:04:49.647Z,100514.13
2023-03-30T22:07:16.265Z,100485.03
2023-03-30T22:09:42.930Z,100387.22
2023-03-30T22:12:09.715Z,100467.34
2023-03-30T22:14:36.512Z,100444.63
2023-03-30T22:17:02.962Z,100412.56
2023-03-30T22:19:29.814Z,100400.69
2023-03-30T22:21:56.494Z,100380.03
2023-03-30T22:24:23.002Z,100352.75
2023-03-30T22:26:49.542Z,100329.78
2023-03-30T22:29:16.035Z,100327.25
2023-03-30T22:31:42.731Z,100308.31
2023-03-30T22:34:09.276Z,100287.44
2023-03-30T22:36:35.811Z,100288.31
2023-03-30T22:39:02.593Z,100300.88
2023-03-30T22:41:29.558Z,100282.44
2023-03-30T22:43:57.514Z,100243.81
2023-03-30T22:46:26.630Z,100234.94
2023-03-30T22:48:53.596Z,100277.59
2023-03-30T22:51:20.131Z,100271.28
2023-03-30T22:53:46.647Z,100267.31
2023-03-30T22:56:13.508Z,100263.75
2023-03-30T22:58:40.242Z,100247.78
2023-03-30T23:01:06.941Z,100246.56
2023-03-30T23:03:33.712Z,100232.72
2023-03-30T23:06:00.577Z,100226.75
2023-03-30T23:08:28.505Z,100227.63
2023-03-30T23:10:55.496Z,100262.34
2023-03-30T23:13:23.147Z,100296.34
2023-03-30T23:15:49.720Z,100299.78
2023-03-30T23:18:16.676Z,100299.31
2023-03-30T23:20:43.216Z,100301.22
2023-03-30T23:23:09.742Z,100296.28
2023-03-30T23:25:36.358Z,100301.56
2023-03-30T23:28:04.002Z,100305.41
2023-03-30T23:30:30.933Z,100311.66
2023-03-30T23:32:58.021Z,100326.50
2023-03-30T23:35:24.627Z,100294.50
2023-03-30T23:37:51.306Z,100320.06
2023-03-30T23:40:17.851Z,100337.34
2023-03-30T23:42:44.524Z,100331.75
2023-03-30T23:45:11.247Z,100333.75
2023-03-30T23:47:37.790Z,100330.94
2023-03-30T23:50:04.970Z,100340.34
2023-03-30T23:52:31.972Z,100323.91
2023-03-30T23:54:58.610Z,100327.75
2023-03-30T23:57:25.253Z,100312.94
2023-03-30T23:59:51.909Z,100307.16
